createdAt,value
2022-10-14T00:01:46.780Z,100443.05
2022-10-14T00:04:13.586Z,100444.42
2022-10-14T00:06:40.176Z,100440.29
2022-10-14T00:09:08.724Z,100442.09
2022-10-14T00:11:36.687Z,100438.90
2022-10-14T00:14:10.431Z,100436.79
2022-10-14T00:16:38.324Z,100437.34
2022-10-14T00:19:05.348Z,100434.03
2022-10-14T00:21:32.312Z,100432.49
2022-10-14T00:23:59.043Z,100433.96
2022-10-14T00:26:27.722Z,100435.56
2022-10-14T00:28:54.690Z,100436.91
2022-10-14T00:31:21.736Z,100435.08
2022-10-14T00:33:49.156Z,100430.56
2022-10-14T00:36:16.646Z,100428.20
2022-10-14T00:38:45.284Z,100425.82
2022-10-14T00:41:14.912Z,100425.65
2022-10-14T00:44:15.197Z,100421.90
2022-10-14T00:46:42.759Z,100423.30
2022-10-14T00:49:15.229Z,100420.80
2022-10-14T00:51:44.110Z,100421.21
2022-10-14T00:54:11.792Z,100418.82
2022-10-14T00:56:38.472Z,100418.73
2022-10-14T00:59:07.706Z,100412.64
2022-10-14T01:01:34.444Z,100413.98
2022-10-14T01:04:01.116Z,100410.80
2022-10-14T01:06:31.797Z,100410.08
2022-10-14T01:09:06.222Z,100408.86
2022-10-14T01:11:38.652Z,100410.80
2022-10-14T01:14:20.476Z,100409.31
2022-10-14T01:16:59.531Z,100407.64
2022-10-14T01:19:56.936Z,100406.69
2022-10-14T01:22:47.658Z,100403.45
2022-10-14T01:25:59.304Z,100402.42
2022-10-14T01:29:07.868Z,100402.76
2022-10-14T01:31:35.800Z,100399.45
2022-10-14T01:34:06.485Z,100399.78
2022-10-14T01:36:36.082Z,100399.43
2022-10-14T01:39:14.998Z,100396.67
2022-10-14T01:41:45.442Z,100396.33
2022-10-14T01:44:12.622Z,100397.45
2022-10-14T01:46:40.828Z,100395.86
2022-10-14T01:49:10.354Z,100396.41
2022-10-14T01:51:39.840Z,100396.40
2022-10-14T01:54:11.158Z,100399.25
2022-10-14T01:56:40.596Z,100397.77
2022-10-14T01:59:07.875Z,100398.40
2022-10-14T02:01:36.313Z,100397.70
2022-10-14T02:04:03.147Z,100399.59
2022-10-14T02:06:31.264Z,100402.91
2022-10-14T02:09:14.975Z,100403.05
2022-10-14T02:11:58.122Z,100398.13
2022-10-14T02:14:40.189Z,100398.39
2022-10-14T02:17:34.570Z,100398.35
2022-10-14T02:20:10.706Z,100395.23
2022-10-14T02:22:41.051Z,100394.36
2022-10-14T02:25:19.261Z,100392.75
2022-10-14T02:27:46.240Z,100391.27
2022-10-14T02:30:13.120Z,100391.90
2022-10-14T02:32:39.823Z,100395.77
2022-10-14T02:35:06.757Z,100391.83
2022-10-14T02:37:33.432Z,100396.64
2022-10-14T02:40:15.424Z,100395.79
2022-10-14T02:42:42.176Z,100392.46
2022-10-14T02:45:09.161Z,100393.36
2022-10-14T02:47:35.914Z,100392.11
2022-10-14T02:50:02.657Z,100394.03
2022-10-14T02:52:29.816Z,100391.09
2022-10-14T02:54:56.500Z,100397.89
2022-10-14T02:57:23.259Z,100399.31
2022-10-14T02:59:49.854Z,100399.72
2022-10-14T03:02:17.077Z,100401.16
2022-10-14T03:04:43.901Z,100401.38
2022-10-14T03:07:10.668Z,100401.42
2022-10-14T03:09:42.082Z,100397.59
2022-10-14T03:12:09.091Z,100398.43
2022-10-14T03:14:35.754Z,100398.77
2022-10-14T03:17:02.817Z,100399.02
2022-10-14T03:19:31.633Z,100392.89
2022-10-14T03:21:58.367Z,100393.10
2022-10-14T03:24:25.545Z,100388.77
2022-10-14T03:27:09.642Z,100395.44
2022-10-14T03:29:36.796Z,100395.84
2022-10-14T03:32:11.967Z,100396.02
2022-10-14T03:35:04.573Z,100394.31
2022-10-14T03:37:31.868Z,100394.36
2022-10-14T03:39:58.649Z,100393.35
2022-10-14T03:42:25.417Z,100394.39
2022-10-14T03:44:52.433Z,100394.23
2022-10-14T03:47:25.985Z,100387.31
2022-10-14T03:49:53.107Z,100391.14
2022-10-14T03:52:27.230Z,100391.38
2022-10-14T03:55:04.990Z,100387.79
2022-10-14T03:57:31.909Z,100390.91
2022-10-14T03:59:59.371Z,100393.02
2022-10-14T04:02:40.665Z,100391.55
2022-10-14T04:05:09.633Z,100390.46
2022-10-14T04:07:36.722Z,100390.05
2022-10-14T04:10:03.780Z,100390.21
2022-10-14T04:12:30.806Z,100389.67
2022-10-14T04:15:00.725Z,100391.08
2022-10-14T04:17:31.689Z,100393.76
2022-10-14T04:20:01.047Z,100390.38
2022-10-14T04:22:27.761Z,100386.80
2022-10-14T04:24:54.771Z,100385.66
2022-10-14T04:27:21.500Z,100392.14
2022-10-14T04:29:55.174Z,100392.02
2022-10-14T04:32:26.396Z,100391.90
2022-10-14T04:34:55.031Z,100392.58
2022-10-14T04:37:23.958Z,100399.16
2022-10-14T04:40:04.004Z,100399.33
2022-10-14T04:42:31.186Z,100398.45
2022-10-14T04:45:02.069Z,100396.64
2022-10-14T04:47:49.121Z,100391.92
2022-10-14T04:50:18.889Z,100394.14
2022-10-14T04:53:06.876Z,100397.77
2022-10-14T04:55:36.840Z,100396.29
2022-10-14T04:58:03.660Z,100397.16
2022-10-14T05:00:35.688Z,100397.45
2022-10-14T05:03:10.774Z,100392.02
2022-10-14T05:05:37.887Z,100397.57
2022-10-14T05:08:05.445Z,100398.54
2022-10-14T05:10:36.472Z,100401.45
2022-10-14T05:13:04.197Z,100404.36
2022-10-14T05:15:34.376Z,100403.06
2022-10-14T05:18:57.241Z,100404.91
2022-10-14T05:21:26.388Z,100401.78
2022-10-14T05:23:58.448Z,100404.06
2022-10-14T05:26:26.432Z,100410.80
2022-10-14T05:28:53.952Z,100411.71
2022-10-14T05:31:21.030Z,100408.80
2022-10-14T05:33:58.025Z,100417.79
2022-10-14T05:36:24.888Z,100417.69
2022-10-14T05:38:51.632Z,100423.77
2022-10-14T05:41:19.825Z,100427.42
2022-10-14T05:43:46.561Z,100428.86
2022-10-14T05:46:13.331Z,100425.92
2022-10-14T05:48:41.352Z,100423.52
2022-10-14T05:51:08.088Z,100422.72
2022-10-14T05:53:37.425Z,100428.36
2022-10-14T05:56:08.053Z,100431.02
2022-10-14T05:58:36.805Z,100428.09
2022-10-14T06:01:05.033Z,100430.92
2022-10-14T06:03:32.194Z,100427.95
2022-10-14T06:05:59.108Z,100431.57
2022-10-14T06:08:25.936Z,100431.03
2022-10-14T06:10:53.071Z,100429.63
2022-10-14T06:13:20.218Z,100434.39
2022-10-14T06:15:50.011Z,100436.73
2022-10-14T06:18:19.262Z,100435.98
2022-10-14T06:20:51.388Z,100439.50
2022-10-14T06:23:18.554Z,100440.04
2022-10-14T06:25:45.311Z,100445.00
2022-10-14T06:28:11.995Z,100445.84
2022-10-14T06:30:38.705Z,100441.46
2022-10-14T06:33:05.423Z,100442.45
2022-10-14T06:35:32.062Z,100446.45
2022-10-14T06:37:58.821Z,100446.19
2022-10-14T06:40:25.480Z,100448.89
2022-10-14T06:42:53.673Z,100446.89
2022-10-14T06:45:20.352Z,100449.64
2022-10-14T06:47:47.242Z,100450.67
2022-10-14T06:50:13.983Z,100448.44
2022-10-14T06:52:40.691Z,100448.96
2022-10-14T06:55:07.774Z,100447.95
2022-10-14T06:57:34.580Z,100445.56
2022-10-14T07:00:01.164Z,100446.28
2022-10-14T07:02:27.903Z,100449.61
2022-10-14T07:04:54.556Z,100447.27
2022-10-14T07:07:21.383Z,100446.77
2022-10-14T07:09:48.137Z,100442.61
2022-10-14T07:12:15.149Z,100440.05
2022-10-14T07:14:42.090Z,100440.02
2022-10-14T07:17:09.015Z,100436.96
2022-10-14T07:19:35.728Z,100438.27
2022-10-14T07:22:02.470Z,100433.54
2022-10-14T07:24:29.291Z,100434.44
2022-10-14T07:26:56.016Z,100429.20
2022-10-14T07:29:22.904Z,100427.30
2022-10-14T07:31:49.683Z,100425.01
2022-10-14T07:34:16.303Z,100426.23
2022-10-14T07:36:43.055Z,100426.59
2022-10-14T07:39:09.703Z,100426.52
2022-10-14T07:41:36.676Z,100430.45
2022-10-14T07:44:06.612Z,100427.42
2022-10-14T07:46:34.037Z,100432.41
2022-10-14T07:49:03.126Z,100430.85
2022-10-14T07:51:29.848Z,100429.48
2022-10-14T07:53:56.985Z,100434.70
2022-10-14T07:56:23.746Z,100435.34
2022-10-14T07:58:50.405Z,100435.98
2022-10-14T08:01:18.824Z,100432.52
2022-10-14T08:03:46.424Z,100434.13
2022-10-14T08:06:13.314Z,100436.45
2022-10-14T08:08:40.167Z,100433.53
2022-10-14T08:11:09.552Z,100430.77
2022-10-14T08:13:36.413Z,100428.72
2022-10-14T08:16:03.158Z,100423.09
2022-10-14T08:18:29.810Z,100425.44
2022-10-14T08:20:56.514Z,100423.68
2022-10-14T08:23:23.295Z,100422.94
2022-10-14T08:25:50.647Z,100421.94
2022-10-14T08:28:17.395Z,100424.11
2022-10-14T08:30:44.052Z,100425.45
2022-10-14T08:33:13.132Z,100423.16
2022-10-14T08:35:40.192Z,100422.94
2022-10-14T08:38:06.986Z,100421.98
2022-10-14T08:40:54.824Z,100422.05
2022-10-14T08:43:30.910Z,100418.25
2022-10-14T08:46:02.266Z,100413.39
2022-10-14T08:48:28.977Z,100415.67
2022-10-14T08:51:09.706Z,100413.98
2022-10-14T08:53:39.707Z,100410.70
2022-10-14T08:56:06.944Z,100409.33
2022-10-14T08:58:46.013Z,100410.77
2022-10-14T09:01:26.918Z,100411.02
2022-10-14T09:03:58.538Z,100413.14
2022-10-14T09:06:26.771Z,100413.02
2022-10-14T09:08:56.140Z,100415.44
2022-10-14T09:11:24.203Z,100416.31
2022-10-14T09:13:53.324Z,100417.19
2022-10-14T09:16:21.579Z,100414.84
2022-10-14T09:18:58.183Z,100415.90
2022-10-14T09:24:27.361Z,100411.59
2022-10-14T09:26:58.581Z,100415.23
2022-10-14T09:29:30.649Z,100413.77
2022-10-14T09:32:08.257Z,100416.45
2022-10-14T09:34:37.062Z,100410.04
2022-10-14T09:37:32.465Z,100409.82
2022-10-14T09:40:01.392Z,100405.00
2022-10-14T09:43:09.744Z,100401.59
2022-10-14T09:46:02.137Z,100400.80
2022-10-14T09:48:49.019Z,100397.52
2022-10-14T09:51:42.126Z,100398.56
2022-10-14T09:54:20.732Z,100394.63
2022-10-14T09:56:49.486Z,100393.23
2022-10-14T09:59:20.410Z,100391.33
2022-10-14T10:01:57.666Z,100393.67
2022-10-14T10:04:30.246Z,100393.30
2022-10-14T10:06:57.260Z,100394.69
2022-10-14T10:09:24.168Z,100391.63
2022-10-14T10:11:51.037Z,100392.57
2022-10-14T10:14:20.882Z,100393.06
2022-10-14T10:16:47.777Z,100388.64
2022-10-14T10:19:28.672Z,100389.90
2022-10-14T10:21:56.184Z,100384.86
2022-10-14T10:24:26.085Z,100385.46
2022-10-14T10:26:55.445Z,100382.99
2022-10-14T10:29:29.520Z,100385.50
2022-10-14T10:32:18.828Z,100382.84
2022-10-14T10:35:11.387Z,100380.92
2022-10-14T10:37:48.658Z,100379.83
2022-10-14T10:40:27.984Z,100382.98
2022-10-14T10:42:54.671Z,100383.67
2022-10-14T10:45:51.831Z,100383.73
2022-10-14T10:48:24.626Z,100382.88
2022-10-14T10:51:02.522Z,100383.23
2022-10-14T10:53:42.713Z,100381.21
2022-10-14T10:56:18.434Z,100380.23
2022-10-14T10:59:25.405Z,100379.58
2022-10-14T11:02:17.121Z,100374.35
2022-10-14T11:04:50.724Z,100371.81
2022-10-14T11:07:51.978Z,100373.35
2022-10-14T11:10:43.620Z,100371.47
2022-10-14T11:13:23.331Z,100367.13
2022-10-14T11:15:55.143Z,100362.57
2022-10-14T11:18:31.858Z,100365.92
2022-10-14T11:21:24.820Z,100362.39
2022-10-14T11:24:19.388Z,100361.42
2022-10-14T11:27:35.716Z,100358.33
2022-10-14T11:30:18.655Z,100360.48
2022-10-14T11:32:52.724Z,100360.55
2022-10-14T11:35:23.345Z,100359.29
2022-10-14T11:38:25.871Z,100356.63
2022-10-14T11:41:22.548Z,100356.89
2022-10-14T11:44:13.853Z,100355.52
2022-10-14T11:46:43.255Z,100353.40
2022-10-14T11:49:17.681Z,100351.84
2022-10-14T11:51:50.738Z,100353.60
2022-10-14T11:54:22.895Z,100347.02
2022-10-14T11:57:01.447Z,100351.61
2022-10-14T11:59:31.285Z,100349.73
2022-10-14T12:02:17.698Z,100350.86
2022-10-14T12:04:45.271Z,100349.80
2022-10-14T12:07:19.991Z,100348.80
2022-10-14T12:09:54.646Z,100345.86
2022-10-14T12:12:26.329Z,100343.13
2022-10-14T12:14:58.929Z,100341.75
2022-10-14T12:17:31.399Z,100338.14
2022-10-14T12:19:58.159Z,100335.70
2022-10-14T12:22:26.210Z,100338.88
2022-10-14T12:24:54.331Z,100337.47
2022-10-14T12:27:22.473Z,100337.40
2022-10-14T12:29:50.202Z,100335.22
2022-10-14T12:32:16.904Z,100329.45
2022-10-14T12:34:43.613Z,100325.67
2022-10-14T12:37:31.627Z,100326.05
2022-10-14T12:40:07.892Z,100325.05
2022-10-14T12:42:44.100Z,100322.68
2022-10-14T12:45:18.596Z,100324.28
2022-10-14T12:47:45.265Z,100324.57
2022-10-14T12:50:15.951Z,100323.89
2022-10-14T12:52:46.283Z,100321.10
2022-10-14T12:55:16.853Z,100320.39
2022-10-14T12:57:43.569Z,100319.63
2022-10-14T13:00:13.728Z,100318.33
2022-10-14T13:02:44.726Z,100319.13
2022-10-14T13:05:34.835Z,100314.93
2022-10-14T13:08:28.453Z,100313.57
2022-10-14T13:10:55.160Z,100311.03
2022-10-14T13:13:51.560Z,100310.96
2022-10-14T13:16:21.254Z,100309.64
2022-10-14T13:18:49.187Z,100310.27
2022-10-14T13:21:31.213Z,100309.78
2022-10-14T13:24:02.378Z,100310.33
2022-10-14T13:26:37.965Z,100307.43
2022-10-14T13:29:17.783Z,100309.36
2022-10-14T13:31:53.705Z,100307.52
2022-10-14T13:34:33.172Z,100312.29
2022-10-14T13:37:44.811Z,100311.09
2022-10-14T13:40:36.171Z,100312.23
2022-10-14T13:43:07.422Z,100311.94
2022-10-14T13:45:39.635Z,100313.45
2022-10-14T13:48:14.213Z,100310.46
2022-10-14T13:50:41.037Z,100310.14
2022-10-14T13:53:15.363Z,100308.30
2022-10-14T13:55:51.558Z,100311.13
2022-10-14T13:58:24.603Z,100307.48
2022-10-14T14:01:00.395Z,100307.28
2022-10-14T14:03:43.784Z,100311.10
2022-10-14T14:06:14.713Z,100307.48
2022-10-14T14:08:46.762Z,100310.48
2022-10-14T14:11:27.891Z,100312.50
2022-10-14T14:14:52.970Z,100309.90
2022-10-14T14:18:22.501Z,100305.17
2022-10-14T14:21:32.676Z,100310.21
2022-10-14T14:25:00.540Z,100311.13
2022-10-14T14:27:30.475Z,100309.81
2022-10-14T14:29:57.140Z,100308.83
2022-10-14T14:32:28.730Z,100308.09
2022-10-14T14:34:55.395Z,100305.44
2022-10-14T14:37:47.817Z,100305.05
2022-10-14T14:40:25.879Z,100301.39
2022-10-14T14:42:59.324Z,100300.19
2022-10-14T14:45:30.444Z,100299.07
2022-10-14T14:47:58.092Z,100295.55
2022-10-14T14:50:30.906Z,100295.34
2022-10-14T14:53:02.158Z,100293.92
2022-10-14T14:55:44.730Z,100296.45
2022-10-14T14:58:25.984Z,100291.17
2022-10-14T15:00:54.803Z,100289.31
2022-10-14T15:03:30.753Z,100286.05
2022-10-14T15:06:00.158Z,100287.03
2022-10-14T15:08:36.019Z,100289.09
2022-10-14T15:11:02.930Z,100289.55
2022-10-14T15:13:38.689Z,100289.45
2022-10-14T15:16:06.003Z,100294.70
2022-10-14T15:18:32.770Z,100289.15
2022-10-14T15:21:08.553Z,100292.11
2022-10-14T15:23:38.085Z,100288.52
2022-10-14T15:26:21.002Z,100288.15
2022-10-14T15:29:06.146Z,100285.54
2022-10-14T15:31:36.331Z,100285.73
2022-10-14T15:34:04.652Z,100287.54
2022-10-14T15:36:32.949Z,100291.52
2022-10-14T15:39:02.764Z,100289.10
2022-10-14T15:41:35.576Z,100290.02
2022-10-14T15:44:02.160Z,100295.80
2022-10-14T15:46:47.773Z,100299.66
2022-10-14T15:49:15.968Z,100300.06
2022-10-14T15:51:42.646Z,100302.36
2022-10-14T15:54:11.132Z,100298.00
2022-10-14T15:56:39.266Z,100299.55
2022-10-14T15:59:06.127Z,100297.05
2022-10-14T16:01:34.535Z,100298.48
2022-10-14T16:04:01.443Z,100297.09
2022-10-14T16:06:29.519Z,100302.30
2022-10-14T16:08:56.733Z,100300.41
2022-10-14T16:11:27.478Z,100299.98
2022-10-14T16:13:54.175Z,100297.90
2022-10-14T16:16:24.243Z,100304.55
2022-10-14T16:18:51.695Z,100303.20
2022-10-14T16:21:18.374Z,100307.83
2022-10-14T16:23:45.043Z,100308.33
2022-10-14T16:26:13.792Z,100305.61
2022-10-14T16:28:40.560Z,100304.16
2022-10-14T16:31:09.203Z,100308.35
2022-10-14T16:33:36.959Z,100305.59
2022-10-14T16:36:07.037Z,100302.85
2022-10-14T16:38:33.909Z,100303.52
2022-10-14T16:41:01.392Z,100304.92
2022-10-14T16:43:28.601Z,100306.39
2022-10-14T16:45:59.731Z,100305.85
2022-10-14T16:48:27.946Z,100305.23
2022-10-14T16:50:55.366Z,100298.73
2022-10-14T16:53:40.642Z,100304.24
2022-10-14T16:56:36.823Z,100302.10
2022-10-14T16:59:03.813Z,100306.22
2022-10-14T17:01:30.700Z,100305.54
2022-10-14T17:03:57.564Z,100304.59
2022-10-14T17:06:24.589Z,100305.42
2022-10-14T17:08:51.448Z,100305.52
2022-10-14T17:11:18.281Z,100301.95
2022-10-14T17:13:45.070Z,100299.28
2022-10-14T17:16:11.806Z,100298.36
2022-10-14T17:18:38.772Z,100299.73
2022-10-14T17:21:07.115Z,100297.13
2022-10-14T17:23:37.595Z,100297.95
2022-10-14T17:26:05.326Z,100299.42
2022-10-14T17:28:32.308Z,100292.05
2022-10-14T17:30:59.257Z,100293.46
2022-10-14T17:35:57.551Z,100294.98
2022-10-14T17:38:25.346Z,100293.73
2022-10-14T17:40:52.234Z,100296.92
2022-10-14T17:43:20.488Z,100292.73
2022-10-14T17:45:47.236Z,100291.55
2022-10-14T17:48:16.928Z,100291.97
2022-10-14T17:50:47.637Z,100295.52
2022-10-14T17:53:14.346Z,100291.06
2022-10-14T17:55:41.024Z,100290.13
2022-10-14T17:58:07.703Z,100288.73
2022-10-14T18:00:34.459Z,100292.41
2022-10-14T18:03:01.173Z,100291.63
2022-10-14T18:05:27.802Z,100295.59
2022-10-14T18:07:55.581Z,100296.95
2022-10-14T18:10:23.837Z,100298.63
2022-10-14T18:12:50.657Z,100302.11
2022-10-14T18:15:17.375Z,100298.31
2022-10-14T18:17:44.036Z,100301.77
2022-10-14T18:20:10.838Z,100305.10
2022-10-14T18:22:37.582Z,100302.71
2022-10-14T18:25:05.186Z,100305.33
2022-10-14T18:27:32.218Z,100304.08
2022-10-14T18:29:58.977Z,100305.66
2022-10-14T18:32:25.977Z,100307.09
2022-10-14T18:34:52.956Z,100303.77
2022-10-14T18:37:19.729Z,100305.16
2022-10-14T18:39:49.342Z,100304.54
2022-10-14T18:42:18.525Z,100305.43
2022-10-14T18:44:47.632Z,100303.45
2022-10-14T18:47:14.391Z,100306.49
2022-10-14T18:49:41.031Z,100308.94
2022-10-14T18:52:08.695Z,100307.44
2022-10-14T18:54:35.820Z,100305.86
2022-10-14T18:57:02.715Z,100305.80
2022-10-14T18:59:29.496Z,100309.34
2022-10-14T19:01:56.247Z,100304.55
2022-10-14T19:04:24.652Z,100305.45
2022-10-14T19:06:51.481Z,100307.86
2022-10-14T19:09:19.487Z,100303.70
2022-10-14T19:11:47.776Z,100311.05
2022-10-14T19:14:14.679Z,100313.52
2022-10-14T19:16:41.678Z,100316.15
2022-10-14T19:19:14.237Z,100318.02
2022-10-14T19:21:41.119Z,100323.20
2022-10-14T19:24:08.401Z,100325.20
2022-10-14T19:26:36.019Z,100325.67
2022-10-14T19:29:06.393Z,100325.55
2022-10-14T19:31:35.856Z,100325.98
2022-10-14T19:34:03.166Z,100330.94
2022-10-14T19:36:29.934Z,100333.74
2022-10-14T19:39:00.141Z,100338.10
2022-10-14T19:41:31.208Z,100337.61
2022-10-14T19:43:58.494Z,100342.46
2022-10-14T19:46:27.688Z,100348.52
2022-10-14T19:48:59.084Z,100346.94
2022-10-14T19:51:26.134Z,100349.09
2022-10-14T19:53:57.179Z,100353.39
2022-10-14T19:56:24.830Z,100353.34
2022-10-14T19:58:53.489Z,100356.81
2022-10-14T20:01:21.188Z,100360.81
2022-10-14T20:03:48.011Z,100358.16
2022-10-14T20:06:14.745Z,100358.58
2022-10-14T20:08:41.980Z,100360.28
2022-10-14T20:11:10.584Z,100360.90
2022-10-14T20:13:40.383Z,100361.06
2022-10-14T20:16:08.463Z,100360.27
2022-10-14T20:18:35.357Z,100359.38
2022-10-14T20:21:02.804Z,100357.05
2022-10-14T20:23:29.900Z,100357.38
2022-10-14T20:26:03.287Z,100356.63
2022-10-14T20:28:30.301Z,100357.35
2022-10-14T20:30:57.571Z,100355.97
2022-10-14T20:33:24.842Z,100357.44
2022-10-14T20:36:04.889Z,100360.59
2022-10-14T20:38:31.708Z,100365.20
2022-10-14T20:41:08.563Z,100366.39
2022-10-14T20:43:35.529Z,100364.64
2022-10-14T20:46:02.277Z,100363.35
2022-10-14T20:48:29.008Z,100364.42
2022-10-14T20:50:55.645Z,100367.55
2022-10-14T20:53:23.260Z,100367.98
2022-10-14T20:55:50.018Z,100366.92
2022-10-14T20:58:18.413Z,100366.25
2022-10-14T21:00:45.422Z,100367.58
2022-10-14T21:03:12.172Z,100367.30
2022-10-14T21:05:38.826Z,100364.40
2022-10-14T21:08:05.694Z,100366.67
2022-10-14T21:10:32.478Z,100363.59
2022-10-14T21:12:59.181Z,100367.21
2022-10-14T21:15:26.963Z,100367.75
2022-10-14T21:17:53.752Z,100367.92
2022-10-14T21:20:20.388Z,100369.09
2022-10-14T21:22:47.274Z,100366.84
2022-10-14T21:25:14.066Z,100366.94
2022-10-14T21:27:40.857Z,100369.80
2022-10-14T21:30:07.883Z,100367.44
2022-10-14T21:32:34.612Z,100375.21
2022-10-14T21:35:01.301Z,100373.17
2022-10-14T21:37:28.116Z,100373.17
2022-10-14T21:39:54.777Z,100372.75
2022-10-14T21:42:21.735Z,100368.30
2022-10-14T21:44:48.675Z,100373.67
2022-10-14T21:47:15.346Z,100374.30
2022-10-14T21:49:42.232Z,100374.36
2022-10-14T21:52:09.270Z,100376.03
2022-10-14T21:54:35.968Z,100376.91
2022-10-14T21:57:02.647Z,100373.58
2022-10-14T21:59:29.378Z,100374.98
2022-10-14T22:01:58.898Z,100372.61
2022-10-14T22:04:28.951Z,100370.36
2022-10-14T22:06:55.673Z,100371.20
2022-10-14T22:09:22.350Z,100374.14
2022-10-14T22:11:49.098Z,100369.02
2022-10-14T22:14:17.518Z,100369.80
2022-10-14T22:16:45.306Z,100371.34
2022-10-14T22:19:12.348Z,100374.42
2022-10-14T22:21:40.233Z,100373.77
2022-10-14T22:26:34.931Z,100374.13
2022-10-14T22:29:02.957Z,100372.23
2022-10-14T22:31:29.811Z,100370.41
2022-10-14T22:33:56.514Z,100367.16
2022-10-14T22:36:24.490Z,100371.12
2022-10-14T22:38:52.316Z,100369.48
2022-10-14T22:41:19.547Z,100370.40
2022-10-14T22:43:47.280Z,100371.77
2022-10-14T22:46:14.229Z,100371.02
2022-10-14T22:48:40.919Z,100370.95
2022-10-14T22:51:11.297Z,100370.18
2022-10-14T22:53:38.675Z,100369.42
2022-10-14T22:56:07.854Z,100364.77
2022-10-14T22:58:34.725Z,100370.66
2022-10-14T23:01:08.967Z,100369.04
2022-10-14T23:03:36.251Z,100367.33
2022-10-14T23:06:04.490Z,100367.75
2022-10-14T23:08:31.296Z,100368.79
2022-10-14T23:10:58.236Z,100369.08
2022-10-14T23:13:25.348Z,100369.99
2022-10-14T23:15:59.029Z,100371.54
2022-10-14T23:18:26.670Z,100368.88
2022-10-14T23:20:53.693Z,100368.20
2022-10-14T23:23:20.397Z,100370.58
2022-10-14T23:25:47.159Z,100371.69
2022-10-14T23:28:13.852Z,100372.31
2022-10-14T23:30:40.644Z,100372.26
2022-10-14T23:33:10.765Z,100375.63
2022-10-14T23:35:38.766Z,100372.36
2022-10-14T23:38:05.509Z,100374.73
2022-10-14T23:40:32.221Z,100373.23
2022-10-14T23:42:58.904Z,100374.42
2022-10-14T23:45:25.582Z,100374.46
2022-10-14T23:47:52.224Z,100371.33
2022-10-14T23:50:18.898Z,100370.11
2022-10-14T23:52:46.007Z,100367.86
2022-10-14T23:55:13.441Z,100364.60
2022-10-14T23:57:40.500Z,100366.73
